createdAt,value
2022-07-27T00:00:46.462Z,47.14
2022-07-27T00:03:12.761Z,47.13
2022-07-27T00:05:39.156Z,47.10
2022-07-27T00:08:05.541Z,47.15
2022-07-27T00:10:31.928Z,47.15
2022-07-27T00:12:58.332Z,47.16
2022-07-27T00:15:24.714Z,47.14
2022-07-27T00:17:51.100Z,47.11
2022-07-27T00:20:17.514Z,47.11
2022-07-27T00:22:43.898Z,47.10
2022-07-27T00:25:10.279Z,47.10
2022-07-27T00:27:36.734Z,47.11
2022-07-27T00:30:03.133Z,47.09
2022-07-27T00:32:29.525Z,47.11
2022-07-27T00:34:55.914Z,47.11
2022-07-27T00:37:22.300Z,47.08
2022-07-27T00:39:48.679Z,47.08
2022-07-27T00:42:15.061Z,47.13
2022-07-27T00:44:41.443Z,47.06
2022-07-27T00:47:07.949Z,47.06
2022-07-27T00:49:34.263Z,47.08
2022-07-27T00:52:00.644Z,47.06
2022-07-27T00:54:27.033Z,47.12
2022-07-27T00:56:53.420Z,47.12
2022-07-27T00:59:19.810Z,47.10
2022-07-27T01:01:46.280Z,47.15
2022-07-27T01:04:12.586Z,47.10
2022-07-27T01:06:38.961Z,47.16
2022-07-27T01:09:05.351Z,47.12
2022-07-27T01:11:31.738Z,47.11
2022-07-27T01:13:58.278Z,47.10
2022-07-27T01:16:24.695Z,47.15
2022-07-27T01:18:51.044Z,47.08
2022-07-27T01:21:17.425Z,47.12
2022-07-27T01:23:43.893Z,47.12
2022-07-27T01:26:10.234Z,47.15
2022-07-27T01:28:36.649Z,47.08
2022-07-27T01:31:03.124Z,47.06
2022-07-27T01:33:29.457Z,47.07
2022-07-27T01:35:56.929Z,47.06
2022-07-27T01:38:22.381Z,47.10
2022-07-27T01:40:48.765Z,47.09
2022-07-27T01:43:15.223Z,47.03
2022-07-27T01:45:41.614Z,47.07
2022-07-27T01:48:07.995Z,47.06
2022-07-27T01:50:34.373Z,47.07
2022-07-27T01:53:00.759Z,47.05
2022-07-27T01:55:27.138Z,47.06
2022-07-27T01:57:53.542Z,47.08
2022-07-27T02:00:19.934Z,47.02
2022-07-27T02:02:46.308Z,47.03
2022-07-27T02:05:12.745Z,47.07
2022-07-27T02:07:39.072Z,47.01
2022-07-27T02:10:05.474Z,47.00
2022-07-27T02:12:31.941Z,46.96
2022-07-27T02:14:58.322Z,46.91
2022-07-27T02:17:24.719Z,46.90
2022-07-27T02:19:51.104Z,46.88
2022-07-27T02:22:17.500Z,46.85
2022-07-27T02:24:43.888Z,46.78
2022-07-27T02:27:10.306Z,46.73
2022-07-27T02:29:36.662Z,46.76
2022-07-27T02:32:03.051Z,46.71
2022-07-27T02:34:29.426Z,46.66
2022-07-27T02:36:55.815Z,46.65
2022-07-27T02:39:22.197Z,46.65
2022-07-27T02:41:50.297Z,46.64
2022-07-27T02:44:15.013Z,46.69
2022-07-27T02:46:41.481Z,46.66
2022-07-27T02:49:07.883Z,46.73
2022-07-27T02:51:34.176Z,46.68
2022-07-27T02:54:00.673Z,46.71
2022-07-27T02:56:27.225Z,46.65
2022-07-27T02:58:53.429Z,46.63
2022-07-27T03:01:19.850Z,46.57
2022-07-27T03:03:46.193Z,46.62
2022-07-27T03:06:12.600Z,46.60
2022-07-27T03:08:38.996Z,46.54
2022-07-27T03:11:05.381Z,46.54
2022-07-27T03:13:31.766Z,46.57
2022-07-27T03:15:58.365Z,46.56
2022-07-27T03:18:24.657Z,46.51
2022-07-27T03:20:51.049Z,46.53
2022-07-27T03:23:17.422Z,46.61
2022-07-27T03:25:43.840Z,46.61
2022-07-27T03:28:10.220Z,46.58
2022-07-27T03:30:36.648Z,46.51
2022-07-27T03:33:02.986Z,46.49
2022-07-27T03:35:29.449Z,46.50
2022-07-27T03:37:55.853Z,46.54
2022-07-27T03:40:22.233Z,46.48
2022-07-27T03:42:48.617Z,46.44
2022-07-27T03:45:15.004Z,46.38
2022-07-27T03:47:41.385Z,46.36
2022-07-27T03:50:07.841Z,46.37
2022-07-27T03:52:34.226Z,46.45
2022-07-27T03:55:00.616Z,46.34
2022-07-27T03:57:27.000Z,46.35
2022-07-27T03:59:53.388Z,46.36
2022-07-27T04:02:19.859Z,46.31
2022-07-27T04:04:46.163Z,46.33
2022-07-27T04:07:12.539Z,46.19
2022-07-27T04:09:39.463Z,46.27
2022-07-27T04:12:05.330Z,46.23
2022-07-27T04:14:31.763Z,46.22
2022-07-27T04:16:58.187Z,46.25
2022-07-27T04:19:24.629Z,46.17
2022-07-27T04:21:51.005Z,46.08
2022-07-27T04:24:17.397Z,46.24
2022-07-27T04:26:43.769Z,46.46
2022-07-27T04:29:10.610Z,46.63
2022-07-27T04:31:36.583Z,46.75
2022-07-27T04:34:02.974Z,46.58
2022-07-27T04:36:29.355Z,46.73
2022-07-27T04:38:55.749Z,46.83
2022-07-27T04:41:22.132Z,46.79
2022-07-27T04:43:48.519Z,46.65
2022-07-27T04:46:15.537Z,46.91
2022-07-27T04:48:41.467Z,47.06
2022-07-27T04:51:07.802Z,47.32
2022-07-27T04:53:34.189Z,49.85
2022-07-27T04:56:00.566Z,48.07
2022-07-27T04:58:26.954Z,47.90
2022-07-27T05:00:53.453Z,48.14
2022-07-27T05:03:19.737Z,48.03
2022-07-27T05:05:50.034Z,48.11
2022-07-27T05:08:12.556Z,48.15
2022-07-27T05:10:38.887Z,48.18
2022-07-27T05:13:07.412Z,48.40
2022-07-27T05:15:54.951Z,48.53
2022-07-27T05:17:58.078Z,48.46
2022-07-27T05:20:24.466Z,48.48
2022-07-27T05:22:50.898Z,48.38
2022-07-27T05:25:17.264Z,48.12
2022-07-27T05:27:53.870Z,48.23
2022-07-27T05:30:10.110Z,48.09
2022-07-27T05:32:36.481Z,48.04
2022-07-27T05:35:02.911Z,48.20
2022-07-27T05:37:30.487Z,48.25
2022-07-27T05:39:55.709Z,48.04
2022-07-27T05:42:22.090Z,48.19
2022-07-27T05:44:48.472Z,48.24
2022-07-27T05:47:14.883Z,48.28
2022-07-27T05:49:41.274Z,48.42
2022-07-27T05:52:07.650Z,48.27
2022-07-27T05:54:34.031Z,48.34
2022-07-27T05:57:00.457Z,48.25
2022-07-27T05:59:26.864Z,48.21
2022-07-27T06:01:53.248Z,48.26
2022-07-27T06:04:19.659Z,48.33
2022-07-27T06:06:46.037Z,48.46
2022-07-27T06:09:12.692Z,48.49
2022-07-27T06:11:38.825Z,48.61
2022-07-27T06:14:05.221Z,48.67
2022-07-27T06:16:31.668Z,48.75
2022-07-27T06:18:58.017Z,48.96
2022-07-27T06:21:24.431Z,48.95
2022-07-27T06:23:50.814Z,49.04
2022-07-27T06:26:17.233Z,49.13
2022-07-27T06:28:43.593Z,49.35
2022-07-27T06:31:10.054Z,49.49
2022-07-27T06:33:36.402Z,49.49
2022-07-27T06:36:02.793Z,49.63
2022-07-27T06:38:29.191Z,49.68
2022-07-27T06:40:55.645Z,49.86
2022-07-27T06:43:22.061Z,49.97
2022-07-27T06:45:48.497Z,50.07
2022-07-27T06:48:14.904Z,49.91
2022-07-27T06:50:41.278Z,50.72
2022-07-27T06:53:07.666Z,50.33
2022-07-27T06:55:34.053Z,50.87
2022-07-27T06:58:01.965Z,50.46
2022-07-27T07:00:26.942Z,50.50
2022-07-27T07:02:53.285Z,50.52
2022-07-27T07:05:19.672Z,50.74
2022-07-27T07:07:46.066Z,50.58
2022-07-27T07:10:12.450Z,50.01
2022-07-27T07:12:38.849Z,50.53
2022-07-27T07:15:05.248Z,50.33
2022-07-27T07:17:31.630Z,50.83
2022-07-27T07:19:58.141Z,50.90
2022-07-27T07:22:24.439Z,50.74
2022-07-27T07:24:50.838Z,50.99
2022-07-27T07:27:17.227Z,50.68
2022-07-27T07:29:43.612Z,50.83
2022-07-27T07:32:10.010Z,50.92
2022-07-27T07:34:36.429Z,51.01
2022-07-27T07:37:02.810Z,51.02
2022-07-27T07:39:31.310Z,51.11
2022-07-27T07:41:55.710Z,51.13
2022-07-27T07:44:22.147Z,51.30
2022-07-27T07:46:48.600Z,51.33
2022-07-27T07:49:15.491Z,51.43
2022-07-27T07:51:41.342Z,51.47
2022-07-27T07:54:07.726Z,51.75
2022-07-27T07:56:34.112Z,51.54
2022-07-27T07:59:00.500Z,51.64
2022-07-27T08:01:27.016Z,51.67
2022-07-27T08:03:53.301Z,51.68
2022-07-27T08:06:19.765Z,51.72
2022-07-27T08:08:46.160Z,51.79
2022-07-27T08:11:12.547Z,51.79
2022-07-27T08:13:38.934Z,51.65
2022-07-27T08:16:05.467Z,51.58
2022-07-27T08:18:31.799Z,51.63
2022-07-27T08:20:58.265Z,51.70
2022-07-27T08:23:24.665Z,51.89
2022-07-27T08:25:51.051Z,52.04
2022-07-27T08:28:17.607Z,51.77
2022-07-27T08:30:43.992Z,51.98
2022-07-27T08:33:10.399Z,51.83
2022-07-27T08:35:36.781Z,51.92
2022-07-27T08:38:03.202Z,51.87
2022-07-27T08:40:40.259Z,51.91
2022-07-27T08:42:55.985Z,51.70
2022-07-27T08:45:22.373Z,51.70
2022-07-27T08:47:48.750Z,51.62
2022-07-27T08:50:15.153Z,51.41
2022-07-27T08:52:41.554Z,51.52
2022-07-27T08:55:07.980Z,51.84
2022-07-27T08:57:34.349Z,51.65
2022-07-27T09:00:00.747Z,51.74
2022-07-27T09:02:27.234Z,51.74
2022-07-27T09:04:53.524Z,51.74
2022-07-27T09:07:19.899Z,51.79
2022-07-27T09:09:46.285Z,51.98
2022-07-27T09:12:12.672Z,52.12
2022-07-27T09:14:39.062Z,52.11
2022-07-27T09:19:31.961Z,51.98
2022-07-27T09:21:58.356Z,51.91
2022-07-27T09:24:45.700Z,51.75
2022-07-27T09:26:51.146Z,51.68
2022-07-27T09:29:17.739Z,51.55
2022-07-27T09:31:43.968Z,51.55
2022-07-27T09:34:10.311Z,51.42
2022-07-27T09:36:36.709Z,51.38
2022-07-27T09:39:03.601Z,51.33
2022-07-27T09:41:29.513Z,51.27
2022-07-27T09:44:31.291Z,51.04
2022-07-27T09:46:22.356Z,50.87
2022-07-27T09:48:48.762Z,50.80
2022-07-27T09:51:58.106Z,50.74
2022-07-27T09:53:43.596Z,50.51
2022-07-27T09:56:07.844Z,50.37
2022-07-27T09:58:34.250Z,50.48
2022-07-27T10:01:00.627Z,50.38
2022-07-27T10:03:27.030Z,50.48
2022-07-27T10:05:53.398Z,50.56
2022-07-27T10:08:19.793Z,50.61
2022-07-27T10:10:46.173Z,50.75
2022-07-27T10:13:12.656Z,51.14
2022-07-27T10:15:39.108Z,51.18
2022-07-27T10:18:07.431Z,51.47
2022-07-27T10:20:31.820Z,51.39
2022-07-27T10:22:58.207Z,51.35
2022-07-27T10:25:24.599Z,51.53
2022-07-27T10:27:53.157Z,51.38
2022-07-27T10:30:27.560Z,51.31
2022-07-27T10:32:45.933Z,51.42
2022-07-27T10:35:12.378Z,51.16
2022-07-27T10:37:38.768Z,51.31
2022-07-27T10:40:05.189Z,51.23
2022-07-27T10:42:31.581Z,51.22
2022-07-27T10:44:57.977Z,51.16
2022-07-27T10:47:24.467Z,51.29
2022-07-27T10:49:50.841Z,51.07
2022-07-27T10:52:17.238Z,51.12
2022-07-27T10:54:48.122Z,51.11
2022-07-27T10:57:10.020Z,51.03
2022-07-27T11:00:06.288Z,51.08
2022-07-27T11:02:02.815Z,51.09
2022-07-27T11:04:29.271Z,51.18
2022-07-27T11:07:23.478Z,51.26
2022-07-27T11:10:02.512Z,51.27
2022-07-27T11:11:48.447Z,51.35
2022-07-27T11:14:15.054Z,51.50
2022-07-27T11:16:54.427Z,51.39
2022-07-27T11:19:07.758Z,51.50
2022-07-27T11:21:34.138Z,51.49
2022-07-27T11:24:00.572Z,51.45
2022-07-27T11:26:28.172Z,51.47
2022-07-27T11:28:53.357Z,51.45
2022-07-27T11:31:38.327Z,51.40
2022-07-27T11:33:46.255Z,51.33
2022-07-27T11:36:12.664Z,51.26
2022-07-27T11:38:39.049Z,51.31
2022-07-27T11:41:15.292Z,51.32
2022-07-27T11:43:33.915Z,51.30
2022-07-27T11:45:58.293Z,51.22
2022-07-27T11:48:24.706Z,51.24
2022-07-27T11:50:51.048Z,51.23
2022-07-27T11:53:19.198Z,51.38
2022-07-27T11:55:43.825Z,51.49
2022-07-27T11:58:10.253Z,51.26
2022-07-27T12:00:36.632Z,51.25
2022-07-27T12:03:03.007Z,51.22
2022-07-27T12:05:29.624Z,51.01
2022-07-27T12:07:55.921Z,50.93
2022-07-27T12:10:22.315Z,50.78
2022-07-27T12:12:48.758Z,50.86
2022-07-27T12:15:44.494Z,51.08
2022-07-27T12:17:41.584Z,50.89
2022-07-27T12:20:07.996Z,50.90
2022-07-27T12:22:34.447Z,51.04
2022-07-27T12:25:00.862Z,51.06
2022-07-27T12:27:27.257Z,51.11
2022-07-27T12:29:53.697Z,51.23
2022-07-27T12:32:20.092Z,51.15
2022-07-27T12:34:46.494Z,51.21
2022-07-27T12:37:12.894Z,51.14
2022-07-27T12:39:39.306Z,51.07
2022-07-27T12:42:05.715Z,51.11
2022-07-27T12:44:32.116Z,51.15
2022-07-27T12:46:58.549Z,50.86
2022-07-27T12:49:24.983Z,50.94
2022-07-27T12:51:51.458Z,50.79
2022-07-27T12:54:17.873Z,50.83
2022-07-27T12:56:44.276Z,50.83
2022-07-27T12:59:11.064Z,50.87
2022-07-27T13:01:37.145Z,50.84
2022-07-27T13:04:03.490Z,50.92
2022-07-27T13:06:29.883Z,50.98
2022-07-27T13:08:56.296Z,50.92
2022-07-27T13:11:22.693Z,50.60
2022-07-27T13:13:49.076Z,50.52
2022-07-27T13:16:15.551Z,50.51
2022-07-27T13:18:41.879Z,50.52
2022-07-27T13:21:08.296Z,50.45
2022-07-27T13:23:34.686Z,50.40
2022-07-27T13:26:01.081Z,50.51
2022-07-27T13:28:27.475Z,50.58
2022-07-27T13:30:53.892Z,50.69
2022-07-27T13:33:20.285Z,50.74
2022-07-27T13:35:46.704Z,50.74
2022-07-27T13:38:16.417Z,50.63
2022-07-27T13:40:39.513Z,50.70
2022-07-27T13:43:09.251Z,50.84
2022-07-27T13:45:42.280Z,50.83
2022-07-27T13:47:58.851Z,50.79
2022-07-27T13:50:25.251Z,50.82
2022-07-27T13:52:51.690Z,50.94
2022-07-27T13:55:18.172Z,50.76
2022-07-27T13:57:44.504Z,50.73
2022-07-27T14:00:10.937Z,50.71
2022-07-27T14:02:37.502Z,50.76
2022-07-27T14:05:03.810Z,51.15
2022-07-27T14:07:30.212Z,51.18
2022-07-27T14:09:56.696Z,50.71
2022-07-27T14:12:23.097Z,50.85
2022-07-27T14:14:49.492Z,50.82
2022-07-27T14:17:15.896Z,50.77
2022-07-27T14:19:42.306Z,50.81
2022-07-27T14:22:08.804Z,50.68
2022-07-27T14:24:38.113Z,50.55
2022-07-27T14:27:01.605Z,50.54
2022-07-27T14:29:28.011Z,50.70
2022-07-27T14:31:54.489Z,50.55
2022-07-27T14:34:20.841Z,50.53
2022-07-27T14:36:47.264Z,50.32
2022-07-27T14:39:14.141Z,50.47
2022-07-27T14:41:44.299Z,50.42
2022-07-27T14:44:06.770Z,50.32
2022-07-27T14:46:33.203Z,50.36
2022-07-27T14:49:07.218Z,50.27
2022-07-27T14:51:26.062Z,50.46
2022-07-27T14:53:52.462Z,50.27
2022-07-27T14:56:18.867Z,50.55
2022-07-27T14:58:45.369Z,50.25
2022-07-27T15:01:11.809Z,50.32
2022-07-27T15:03:38.201Z,50.43
2022-07-27T15:06:04.615Z,50.25
2022-07-27T15:08:31.014Z,50.22
2022-07-27T15:10:57.412Z,50.31
2022-07-27T15:13:23.832Z,50.40
2022-07-27T15:15:50.323Z,50.12
2022-07-27T15:18:16.726Z,50.09
2022-07-27T15:20:43.097Z,50.30
2022-07-27T15:23:09.490Z,50.61
2022-07-27T15:25:35.890Z,50.42
2022-07-27T15:28:02.286Z,50.46
2022-07-27T15:30:28.699Z,50.44
2022-07-27T15:32:55.103Z,50.23
2022-07-27T15:35:21.558Z,50.54
2022-07-27T15:37:54.207Z,50.66
2022-07-27T15:40:14.366Z,50.39
2022-07-27T15:42:40.857Z,50.73
2022-07-27T15:45:07.500Z,50.63
2022-07-27T15:47:33.896Z,50.38
2022-07-27T15:50:00.271Z,50.76
2022-07-27T15:52:26.728Z,50.53
2022-07-27T15:54:53.134Z,50.47
2022-07-27T15:57:19.520Z,50.56
2022-07-27T15:59:45.903Z,50.55
2022-07-27T16:02:12.295Z,50.61
2022-07-27T16:04:38.674Z,50.70
2022-07-27T16:07:05.108Z,50.65
2022-07-27T16:09:31.505Z,50.85
2022-07-27T16:11:57.954Z,50.84
2022-07-27T16:14:24.334Z,50.92
2022-07-27T16:16:50.729Z,50.80
2022-07-27T16:19:17.311Z,51.00
2022-07-27T16:21:54.848Z,51.18
2022-07-27T16:24:09.961Z,51.43
2022-07-27T16:26:36.349Z,51.36
2022-07-27T16:29:02.745Z,51.53
2022-07-27T16:31:29.257Z,51.65
2022-07-27T16:33:55.550Z,51.73
2022-07-27T16:36:22.229Z,51.91
2022-07-27T16:38:50.391Z,51.94
2022-07-27T16:41:14.759Z,52.03
2022-07-27T16:43:41.115Z,52.16
2022-07-27T16:46:07.554Z,52.20
2022-07-27T16:48:41.569Z,52.31
2022-07-27T16:51:00.292Z,52.31
2022-07-27T16:53:26.670Z,52.42
2022-07-27T16:55:53.067Z,52.51
2022-07-27T16:58:19.497Z,52.67
2022-07-27T17:00:45.906Z,52.53
2022-07-27T17:03:12.309Z,52.44
2022-07-27T17:05:38.691Z,52.58
2022-07-27T17:08:05.073Z,52.86
2022-07-27T17:10:31.451Z,52.93
2022-07-27T17:12:57.956Z,52.81
2022-07-27T17:15:24.263Z,52.79
2022-07-27T17:17:50.741Z,52.76
2022-07-27T17:20:28.142Z,52.75
2022-07-27T17:22:43.501Z,52.54
2022-07-27T17:25:09.903Z,52.51
2022-07-27T17:27:36.275Z,52.45
2022-07-27T17:30:02.658Z,52.49
2022-07-27T17:32:29.047Z,52.44
2022-07-27T17:34:55.443Z,52.49
2022-07-27T17:37:21.827Z,52.40
2022-07-27T17:39:48.324Z,52.25
2022-07-27T17:42:14.713Z,52.38
2022-07-27T17:44:41.096Z,52.19
2022-07-27T17:47:07.472Z,52.19
2022-07-27T17:49:33.993Z,52.37
2022-07-27T17:52:00.344Z,52.47
2022-07-27T17:54:27.925Z,52.50
2022-07-27T17:56:53.104Z,52.57
2022-07-27T17:59:37.172Z,52.66
2022-07-27T18:01:47.379Z,52.70
2022-07-27T18:04:12.339Z,52.80
2022-07-27T18:06:38.683Z,52.75
2022-07-27T18:09:05.067Z,52.53
2022-07-27T18:11:31.451Z,52.29
2022-07-27T18:13:57.824Z,52.23
2022-07-27T18:16:24.273Z,52.04
2022-07-27T18:18:50.635Z,51.91
2022-07-27T18:21:16.999Z,51.89
2022-07-27T18:23:43.387Z,51.83
2022-07-27T18:26:09.769Z,51.75
2022-07-27T18:28:39.849Z,51.75
2022-07-27T18:31:02.727Z,51.68
2022-07-27T18:33:36.435Z,51.64
2022-07-27T18:35:55.446Z,51.60
2022-07-27T18:38:21.829Z,51.59
2022-07-27T18:40:48.217Z,51.49
2022-07-27T18:43:14.628Z,51.46
2022-07-27T18:45:41.026Z,51.39
2022-07-27T18:48:07.441Z,51.33
2022-07-27T18:50:38.944Z,51.30
2022-07-27T18:53:00.201Z,51.22
2022-07-27T18:55:26.596Z,51.16
2022-07-27T18:57:53.006Z,51.08
2022-07-27T19:00:19.400Z,51.06
2022-07-27T19:02:45.897Z,50.96
2022-07-27T19:05:12.970Z,50.94
2022-07-27T19:07:38.795Z,50.89
2022-07-27T19:10:05.005Z,50.86
2022-07-27T19:12:31.445Z,50.84
2022-07-27T19:14:57.821Z,50.79
2022-07-27T19:17:24.340Z,50.79
2022-07-27T19:19:52.815Z,50.77
2022-07-27T19:22:19.248Z,50.78
2022-07-27T19:24:45.625Z,50.80
2022-07-27T19:27:12.033Z,50.91
2022-07-27T19:29:38.441Z,50.85
2022-07-27T19:32:04.838Z,50.87
2022-07-27T19:34:31.224Z,50.89
2022-07-27T19:36:57.639Z,50.81
2022-07-27T19:39:24.044Z,50.80
2022-07-27T19:41:50.423Z,50.68
2022-07-27T19:44:22.232Z,50.67
2022-07-27T19:46:43.241Z,50.63
2022-07-27T19:49:09.742Z,50.63
2022-07-27T19:51:35.969Z,50.58
2022-07-27T19:54:02.373Z,50.54
2022-07-27T19:56:30.073Z,50.50
2022-07-27T19:58:55.142Z,50.54
2022-07-27T20:01:21.754Z,50.54
2022-07-27T20:03:54.697Z,50.53
2022-07-27T20:06:14.432Z,50.46
2022-07-27T20:08:40.818Z,50.47
2022-07-27T20:11:07.205Z,50.41
2022-07-27T20:13:33.592Z,50.35
2022-07-27T20:15:59.984Z,50.37
2022-07-27T20:18:26.366Z,50.35
2022-07-27T20:20:52.748Z,50.32
2022-07-27T20:23:19.159Z,50.27
2022-07-27T20:25:45.544Z,50.34
2022-07-27T20:28:12.024Z,50.32
2022-07-27T20:30:38.474Z,50.30
2022-07-27T20:33:04.789Z,50.31
2022-07-27T20:35:37.472Z,50.31
2022-07-27T20:37:57.577Z,50.33
2022-07-27T20:40:23.973Z,50.23
2022-07-27T20:42:50.344Z,50.21
2022-07-27T20:45:16.774Z,50.24
2022-07-27T20:47:43.158Z,50.24
2022-07-27T20:50:09.541Z,50.23
2022-07-27T20:52:35.912Z,50.22
2022-07-27T20:55:02.305Z,50.15
2022-07-27T20:57:28.689Z,50.16
2022-07-27T20:59:55.070Z,50.12
2022-07-27T21:02:21.508Z,50.12
2022-07-27T21:04:47.863Z,50.14
2022-07-27T21:07:17.117Z,50.12
2022-07-27T21:09:43.506Z,50.09
2022-07-27T21:12:09.914Z,50.14
2022-07-27T21:14:36.412Z,50.07
2022-07-27T21:17:02.895Z,50.09
2022-07-27T21:19:29.251Z,50.09
2022-07-27T21:21:55.627Z,50.04
2022-07-27T21:24:22.068Z,50.09
2022-07-27T21:26:48.612Z,50.06
2022-07-27T21:29:14.839Z,50.03
2022-07-27T21:31:41.221Z,50.05
2022-07-27T21:34:07.607Z,50.03
2022-07-27T21:36:34.070Z,50.09
2022-07-27T21:39:00.448Z,50.07
2022-07-27T21:41:26.826Z,50.05
2022-07-27T21:43:54.487Z,50.05
2022-07-27T21:46:19.670Z,50.05
2022-07-27T21:48:46.047Z,50.12
2022-07-27T21:51:12.395Z,50.08
2022-07-27T21:53:38.789Z,50.13
2022-07-27T21:56:05.169Z,50.16
2022-07-27T21:58:31.596Z,50.17
2022-07-27T22:00:58.042Z,50.22
2022-07-27T22:03:24.462Z,50.24
2022-07-27T22:05:50.833Z,50.25
2022-07-27T22:08:17.229Z,50.26
2022-07-27T22:10:43.609Z,50.25
2022-07-27T22:13:09.992Z,50.24
2022-07-27T22:15:36.378Z,50.30
2022-07-27T22:18:02.790Z,50.26
2022-07-27T22:20:29.205Z,50.30
2022-07-27T22:22:55.565Z,50.28
2022-07-27T22:25:21.941Z,50.33
2022-07-27T22:27:48.322Z,50.33
2022-07-27T22:30:14.725Z,50.38
2022-07-27T22:32:41.116Z,50.34
2022-07-27T22:35:07.497Z,50.35
2022-07-27T22:37:33.881Z,50.34
2022-07-27T22:40:00.287Z,50.34
2022-07-27T22:42:26.784Z,50.28
2022-07-27T22:44:53.172Z,50.22
2022-07-27T22:47:19.547Z,50.26
2022-07-27T22:49:45.935Z,50.33
2022-07-27T22:52:12.367Z,50.27
2022-07-27T22:54:38.734Z,50.38
2022-07-27T22:57:05.119Z,50.32
2022-07-27T22:59:31.522Z,50.18
2022-07-27T23:01:58.032Z,50.24
2022-07-27T23:04:24.314Z,50.17
2022-07-27T23:06:50.821Z,50.28
2022-07-27T23:09:17.211Z,50.18
2022-07-27T23:11:43.596Z,50.22
2022-07-27T23:14:10.101Z,50.23
2022-07-27T23:16:36.508Z,50.27
2022-07-27T23:19:02.748Z,50.17
2022-07-27T23:21:31.066Z,50.27
2022-07-27T23:23:55.538Z,50.26
2022-07-27T23:26:25.752Z,50.18
2022-07-27T23:28:48.299Z,50.22
2022-07-27T23:31:14.826Z,50.19
2022-07-27T23:33:41.117Z,50.14
2022-07-27T23:36:07.529Z,50.22
2022-07-27T23:38:33.913Z,50.19
2022-07-27T23:41:00.328Z,50.10
2022-07-27T23:43:26.714Z,50.08
2022-07-27T23:45:53.114Z,50.17
2022-07-27T23:48:19.492Z,50.16
2022-07-27T23:50:45.916Z,50.21
2022-07-27T23:53:12.305Z,50.08
2022-07-27T23:55:38.681Z,50.10
2022-07-27T23:58:05.065Z,50.05
